Time;durP1;ratioP1;P1;durP2;ratioP2;P2;SDS_P1;SDS_P2;PMS_P1;PMS_P2;Temp;Humidity;BMP_temperature;BMP_pressure;BME280_temperature;BME280_humidity;BME280_pressure;Samples;Min_cycle;Max_cycle;Signal;HPM_P1;HPM_P2
2021/04/20 00:04:21;;;;;;;2.57;1.50;;;12.60;99.90;;;;;;20472465;28;21034;-71
2021/04/20 00:14:25;;;;;;;7.87;0.93;;;12.50;99.90;;;;;;20452511;29;20205;-72
2021/04/20 00:24:27;;;;;;;0.20;0.20;;;12.50;99.90;;;;;;20453191;29;20525;-72
2021/04/20 00:34:30;;;;;;;0.60;0.60;;;12.50;99.90;;;;;;20477107;28;20700;-72
2021/04/20 00:44:33;;;;;;;0.30;0.30;;;12.60;99.90;;;;;;20533708;28;20223;-74
2021/04/20 00:54:37;;;;;;;0.60;0.57;;;12.70;99.90;;;;;;20531620;28;20200;-72
2021/04/20 01:04:39;;;;;;;0.27;0.27;;;12.80;99.90;;;;;;20484750;28;20769;-72
2021/04/20 01:14:44;;;;;;;0.30;0.20;;;12.90;99.90;;;;;;20452296;29;20208;-73
2021/04/20 01:24:48;;;;;;;6.73;1.03;;;12.90;99.90;;;;;;20451071;29;20879;-72
2021/04/20 01:34:51;;;;;;;0.57;0.43;;;12.70;99.90;;;;;;20477129;28;20252;-72
2021/04/20 01:44:55;;;;;;;0.43;0.43;;;12.50;99.90;;;;;;20538738;28;20196;-72
2021/04/20 01:54:57;;;;;;;0.70;0.47;;;12.50;99.90;;;;;;20542754;28;20196;-72
2021/04/20 02:05:01;;;;;;;0.30;0.30;;;12.40;99.90;;;;;;20476440;28;20330;-73
2021/04/20 02:15:06;;;;;;;1.07;0.67;;;12.50;99.90;;;;;;20462947;29;20255;-72
2021/04/20 02:25:11;;;;;;;0.90;0.80;;;12.50;99.90;;;;;;20462276;29;20593;-72
2021/04/20 02:35:16;;;;;;;0.30;0.30;;;12.30;99.90;;;;;;20492081;28;20212;-72
2021/04/20 02:45:22;;;;;;;0.73;0.67;;;12.40;99.90;;;;;;20570458;28;20730;-72
2021/04/20 02:55:25;;;;;;;0.30;0.23;;;12.40;99.90;;;;;;20538549;28;20247;-72
2021/04/20 03:05:29;;;;;;;0.20;0.20;;;12.40;99.90;;;;;;20485807;28;20236;-73
2021/04/20 03:15:33;;;;;;;0.73;0.60;;;12.20;99.90;;;;;;20454479;29;20247;-73
2021/04/20 03:25:36;;;;;;;0.23;0.23;;;12.20;99.90;;;;;;20457153;29;20428;-72
2021/04/20 03:35:46;;;;;;;1.00;0.93;;;12.00;99.90;;;;;;20491700;28;20232;-72
2021/04/20 03:45:54;;;;;;;0.20;0.20;;;11.90;99.90;;;;;;20536440;28;20203;-73
2021/04/20 03:55:58;;;;;;;2.43;1.17;;;11.90;99.90;;;;;;20517086;28;20220;-73
2021/04/20 04:06:03;;;;;;;0.30;0.30;;;12.00;99.90;;;;;;20474184;28;20232;-73
2021/04/20 04:16:08;;;;;;;0.93;0.60;;;12.00;99.90;;;;;;20455436;29;20828;-70
2021/04/20 04:26:15;;;;;;;0.40;0.40;;;12.00;99.90;;;;;;20482209;28;20192;-71
2021/04/20 04:36:19;;;;;;;0.40;0.40;;;11.90;99.90;;;;;;20531551;28;20756;-72
2021/04/20 04:46:24;;;;;;;0.70;0.70;;;11.90;99.90;;;;;;20530398;28;20611;-72
2021/04/20 04:56:31;;;;;;;1.17;1.03;;;11.80;99.90;;;;;;20511909;28;20232;-72
2021/04/20 05:06:39;;;;;;;0.73;0.73;;;11.70;99.90;;;;;;20469397;28;20243;-73
2021/04/20 05:16:44;;;;;;;0.20;0.20;;;11.50;99.90;;;;;;20453839;28;20377;-72
2021/04/20 05:26:48;;;;;;;0.30;0.30;;;11.50;99.90;;;;;;20466500;29;20193;-72
2021/04/20 05:36:51;;;;;;;0.83;0.83;;;11.60;99.90;;;;;;20463209;29;20405;-73
2021/04/20 05:46:54;;;;;;;0.83;0.60;;;12.00;99.90;;;;;;20462014;29;20212;-70
2021/04/20 05:56:57;;;;;;;0.30;0.30;;;12.20;99.90;;;;;;20459551;29;20224;-74
2021/04/20 06:07:00;;;;;;;0.40;0.40;;;12.60;99.90;;;;;;20459599;29;20229;-73
2021/04/20 06:17:03;;;;;;;2.50;1.70;;;12.90;99.90;;;;;;20457290;29;20557;-73
2021/04/20 06:27:08;;;;;;;1.90;1.40;;;13.20;99.90;;;;;;20460079;28;21055;-71
2021/04/20 06:37:11;;;;;;;3.50;1.93;;;13.80;99.90;;;;;;20456675;29;20232;-69
2021/04/20 06:47:17;;;;;;;0.93;0.47;;;14.50;99.90;;;;;;20456932;29;20740;-70
2021/04/20 06:57:28;;;;;;;6.23;1.80;;;14.90;99.90;;;;;;20455344;29;20232;-73
2021/04/20 07:07:44;;;;;;;1.70;0.97;;;15.40;99.90;;;;;;20454609;29;20228;-71
2021/04/20 07:18:27;;;;;;;1.50;1.40;;;15.50;99.90;;;;;;20456401;29;20332;-72
2021/04/20 07:28:39;;;;;;;0.37;0.37;;;15.80;99.90;;;;;;20453181;29;20294;-72
2021/04/20 07:38:49;;;;;;;0.80;0.80;;;15.90;99.90;;;;;;20454581;28;20228;-72
2021/04/20 07:48:58;;;;;;;2.07;1.23;;;16.00;99.90;;;;;;20454922;29;20639;-72
2021/04/20 07:59:08;;;;;;;1.73;1.07;;;16.10;99.90;;;;;;20448571;29;20230;-72
2021/04/20 08:09:18;;;;;;;0.90;0.90;;;16.70;99.90;;;;;;20403779;29;20455;-69
2021/04/20 08:19:25;;;;;;;2.67;1.20;;;16.80;99.90;;;;;;20394702;29;20356;-70
2021/04/20 08:29:30;;;;;;;0.93;0.93;;;16.70;99.90;;;;;;20447950;29;20196;-70
2021/04/20 08:39:39;;;;;;;1.47;1.33;;;16.80;99.90;;;;;;20419179;28;20686;-70
2021/04/20 08:49:48;;;;;;;0.90;0.90;;;16.50;99.90;;;;;;20384471;29;20261;-69
2021/04/20 09:00:04;;;;;;;0.93;0.93;;;16.60;99.90;;;;;;20430923;29;20284;-70
2021/04/20 09:10:15;;;;;;;1.60;1.03;;;16.50;99.90;;;;;;20452356;28;20896;-70
2021/04/20 09:20:24;;;;;;;2.80;1.23;;;16.80;99.90;;;;;;20442120;29;20315;-70
2021/04/20 09:30:31;;;;;;;2.70;1.77;;;16.70;99.90;;;;;;20442553;29;20189;-70
2021/04/20 09:40:33;;;;;;;1.30;0.50;;;17.10;99.90;;;;;;20458105;29;20519;-70
2021/04/20 09:50:51;;;;;;;0.77;0.77;;;17.20;99.90;;;;;;20461454;29;20196;-69
2021/04/20 10:01:00;;;;;;;1.70;0.97;;;17.00;99.90;;;;;;20459587;29;20331;-70
2021/04/20 10:11:13;;;;;;;1.13;1.13;;;17.10;99.90;;;;;;20449331;28;20552;-69
2021/04/20 10:21:21;;;;;;;1.43;1.13;;;16.70;99.90;;;;;;20424546;29;20248;-69
2021/04/20 10:31:30;;;;;;;0.73;0.73;;;17.00;99.90;;;;;;20424405;29;20329;-70
2021/04/20 10:41:34;;;;;;;1.40;1.13;;;17.40;99.90;;;;;;20376295;29;20728;-69
2021/04/20 10:51:40;;;;;;;0.63;0.63;;;17.20;99.90;;;;;;20374708;29;20244;-67
2021/04/20 11:01:43;;;;;;;4.33;0.83;;;18.00;99.90;;;;;;20399054;29;20288;-69
2021/04/20 11:11:51;;;;;;;0.90;0.80;;;18.30;99.90;;;;;;20453884;29;20193;-69
2021/04/20 11:21:54;;;;;;;0.80;0.67;;;20.00;99.90;;;;;;20454384;28;20228;-69
2021/04/20 11:31:59;;;;;;;7.07;0.60;;;18.80;99.90;;;;;;20419669;29;20202;-70
2021/04/20 11:42:05;;;;;;;0.80;0.80;;;18.30;99.90;;;;;;20435642;29;20271;-69
2021/04/20 11:52:16;;;;;;;0.60;0.50;;;18.20;99.90;;;;;;20437701;29;20679;-70
2021/04/20 12:02:25;;;;;;;0.73;0.73;;;18.70;99.90;;;;;;20451075;29;20236;-70
2021/04/20 12:12:32;;;;;;;1.60;1.07;;;18.60;99.90;;;;;;20451452;29;20244;-69
2021/04/20 12:22:35;;;;;;;0.93;0.77;;;18.20;99.90;;;;;;20450509;29;20323;-69
2021/04/20 12:32:39;;;;;;;2.90;1.20;;;17.80;99.90;;;;;;20443961;28;20247;-70
2021/04/20 12:42:46;;;;;;;0.80;0.80;;;17.30;99.90;;;;;;20446337;29;20232;-68
2021/04/20 12:52:51;;;;;;;0.67;0.67;;;16.80;99.90;;;;;;20446222;29;20315;-72
2021/04/20 13:02:57;;;;;;;2.87;1.13;;;16.50;99.90;;;;;;20432475;29;20298;-69
2021/04/20 13:13:04;;;;;;;0.97;0.87;;;16.40;99.90;;;;;;20411142;28;20197;-72
2021/04/20 13:23:20;;;;;;;1.77;0.97;;;16.50;99.90;;;;;;20450143;29;20630;-71
2021/04/20 13:33:28;;;;;;;4.33;1.17;;;17.90;99.90;;;;;;20373429;29;20372;-70
2021/04/20 13:43:32;;;;;;;3.03;1.40;;;21.70;99.90;;;;;;20378461;29;20229;-73
2021/04/20 13:53:40;;;;;;;1.53;1.00;;;19.50;99.90;;;;;;20382643;29;20276;-71
2021/04/20 14:03:50;;;;;;;0.63;0.53;;;22.30;99.90;;;;;;20408911;29;21059;-70
2021/04/20 14:13:55;;;;;;;0.80;0.80;;;24.30;99.90;;;;;;20459862;29;20204;-70
2021/04/20 14:23:59;;;;;;;0.20;0.20;;;22.10;99.90;;;;;;20444073;29;20236;-71
2021/04/20 14:34:05;;;;;;;0.30;0.30;;;19.70;99.90;;;;;;20440555;29;20247;-72
2021/04/20 14:44:29;;;;;;;10.50;0.70;;;21.70;99.90;;;;;;20459538;29;20237;-72
2021/04/20 14:54:37;;;;;;;0.23;0.23;;;20.90;99.90;;;;;;20436681;28;20671;-72
2021/04/20 15:04:49;;;;;;;0.50;0.50;;;22.70;99.90;;;;;;20455579;29;20384;-72
2021/04/20 15:15:02;;;;;;;0.40;0.33;;;23.40;99.90;;;;;;20457530;29;20319;-72
2021/04/20 15:25:07;;;;;;;0.63;0.63;;;21.30;99.90;;;;;;20454842;29;20220;-73
2021/04/20 15:35:13;;;;;;;1.73;0.73;;;19.00;99.90;;;;;;20458485;29;20283;-70
2021/04/20 15:45:17;;;;;;;5.23;0.70;;;19.20;99.90;;;;;;20452546;29;20224;-71
2021/04/20 15:55:25;;;;;;;0.40;0.40;;;19.00;99.90;;;;;;20451799;29;20685;-71
2021/04/20 16:05:30;;;;;;;6.03;2.93;;;18.60;99.90;;;;;;20450573;28;20579;-72
2021/04/20 16:15:40;;;;;;;0.70;0.70;;;18.60;99.90;;;;;;20447379;29;20671;-72
2021/04/20 16:25:45;;;;;;;1.27;0.77;;;17.90;99.90;;;;;;20449890;29;20232;-73
2021/04/20 16:35:53;;;;;;;2.47;1.70;;;17.70;99.90;;;;;;20448297;29;21015;-73
2021/04/20 16:46:07;;;;;;;0.97;0.50;;;17.30;99.90;;;;;;20447212;29;20228;-72
2021/04/20 16:56:27;;;;;;;0.70;0.70;;;16.90;99.90;;;;;;20451740;29;20227;-70
2021/04/20 17:06:40;;;;;;;0.53;0.50;;;16.80;99.90;;;;;;20447111;29;20232;-71
2021/04/20 17:16:58;;;;;;;0.30;0.27;;;16.40;99.90;;;;;;20439085;28;20600;-73
2021/04/20 17:27:08;;;;;;;0.60;0.60;;;16.20;99.90;;;;;;20464804;29;20387;-73
2021/04/20 17:37:28;;;;;;;1.07;0.97;;;16.20;99.90;;;;;;20481673;28;20572;-73
2021/04/20 17:47:41;;;;;;;0.73;0.73;;;16.30;99.90;;;;;;20542235;28;20204;-72
2021/04/20 17:58:01;;;;;;;0.37;0.37;;;16.20;99.90;;;;;;20542924;28;20371;-71
2021/04/20 18:08:21;;;;;;;0.60;0.60;;;16.10;99.90;;;;;;20468606;28;20682;-72
2021/04/20 18:18:43;;;;;;;0.60;0.43;;;15.90;99.90;;;;;;20459590;29;20231;-73
2021/04/20 18:29:07;;;;;;;9.63;1.63;;;15.60;99.90;;;;;;20459233;28;20204;-74
2021/04/20 18:39:19;;;;;;;1.37;1.23;;;15.80;99.90;;;;;;20464574;28;20247;-73
2021/04/20 18:49:26;;;;;;;0.63;0.57;;;15.60;99.90;;;;;;20480797;28;20274;-73
2021/04/20 18:59:53;;;;;;;0.77;0.77;;;15.60;99.90;;;;;;20514521;28;20275;-73
2021/04/20 19:10:00;;;;;;;1.80;0.67;;;15.40;99.90;;;;;;20455112;29;20235;-73
2021/04/20 19:20:16;;;;;;;0.80;0.80;;;15.50;99.90;;;;;;20438005;29;20484;-73
2021/04/20 19:30:21;;;;;;;3.17;1.30;;;15.30;99.90;;;;;;20449534;29;20650;-73
2021/04/20 19:40:39;;;;;;;0.60;0.60;;;15.20;99.90;;;;;;20454214;28;20231;-71
2021/04/20 19:50:57;;;;;;;0.40;0.40;;;15.10;99.90;;;;;;20451471;29;20220;-72
2021/04/20 20:01:03;;;;;;;0.63;0.63;;;15.10;99.90;;;;;;20432938;29;20233;-74
2021/04/20 20:11:09;;;;;;;2.23;0.63;;;15.00;99.90;;;;;;20451921;28;20542;-74
2021/04/20 20:21:15;;;;;;;0.70;0.53;;;15.00;99.90;;;;;;20449568;29;20235;-73
2021/04/20 20:31:24;;;;;;;2.73;1.30;;;15.10;99.90;;;;;;20435377;28;20201;-75
2021/04/20 20:41:33;;;;;;;2.93;0.67;;;15.10;99.90;;;;;;20450681;28;20233;-74
2021/04/20 20:51:40;;;;;;;1.20;1.10;;;14.90;99.90;;;;;;20446863;29;20192;-74
2021/04/20 21:01:45;;;;;;;0.73;0.73;;;14.90;99.90;;;;;;20448424;29;20236;-74
2021/04/20 21:11:50;;;;;;;1.13;0.63;;;14.90;99.90;;;;;;20449687;29;20201;-73
2021/04/20 21:21:59;;;;;;;0.57;0.20;;;14.90;99.90;;;;;;20454957;29;20225;-74
2021/04/20 21:32:05;;;;;;;0.47;0.47;;;14.70;99.90;;;;;;20459046;28;20280;-72
2021/04/20 21:42:13;;;;;;;1.13;0.53;;;14.70;99.90;;;;;;20449687;29;20229;-72
2021/04/20 21:52:16;;;;;;;0.40;0.20;;;14.70;99.90;;;;;;20451432;29;20208;-73
2021/04/20 22:02:25;;;;;;;1.10;0.87;;;14.70;99.90;;;;;;20439265;28;21005;-73
2021/04/20 22:12:33;;;;;;;0.50;0.40;;;14.70;99.90;;;;;;20463666;28;20310;-73
2021/04/20 22:22:39;;;;;;;0.37;0.37;;;14.70;99.90;;;;;;20464836;29;20465;-74
2021/04/20 22:32:41;;;;;;;0.20;0.10;;;14.80;99.90;;;;;;20469863;28;20219;-72
2021/04/20 22:42:48;;;;;;;0.20;0.10;;;14.90;99.90;;;;;;20524561;28;20354;-73
2021/04/20 22:52:54;;;;;;;0.77;0.30;;;14.80;99.90;;;;;;20539819;28;20227;-72
2021/04/20 23:03:03;;;;;;;0.37;0.30;;;14.80;99.90;;;;;;20505919;28;20601;-71
2021/04/20 23:13:09;;;;;;;0.30;0.20;;;14.90;99.90;;;;;;20458990;28;20315;-72
2021/04/20 23:23:22;;;;;;;1.50;0.70;;;14.70;99.90;;;;;;20457869;29;20298;-71
2021/04/20 23:33:27;;;;;;;0.70;0.40;;;14.70;99.90;;;;;;20473113;28;20192;-72
2021/04/20 23:43:31;;;;;;;0.60;0.60;;;14.70;99.90;;;;;;20535042;28;20227;-71
2021/04/20 23:53:34;;;;;;;0.30;0.30;;;14.60;99.90;;;;;;20516937;28;20188;-72
